Time;durP1;ratioP1;P1;durP2;ratioP2;P2;SDS_P1;SDS_P2;PMS_P1;PMS_P2;Temp;Humidity;BMP_temperature;BMP_pressure;BME280_temperature;BME280_humidity;BME280_pressure;Samples;Min_cycle;Max_cycle;Signal;HPM_P1;HPM_P2
2023/06/20 00:02:21;;;;;;;14.47;13.17;;;;;;;;;;6279104;28;20308;-66
2023/06/20 00:05:22;;;;;;;13.40;12.07;;;;;;;;;;6277748;28;20201;-65
2023/06/20 00:08:23;;;;;;;14.23;12.73;;;;;;;;;;6276287;28;20189;-65
2023/06/20 00:11:24;;;;;;;14.23;12.93;;;;;;;;;;6285075;28;20216;-65
2023/06/20 00:14:29;;;;;;;13.17;12.07;;;;;;;;;;6277377;28;20264;-65
2023/06/20 00:17:30;;;;;;;13.63;12.33;;;;;;;;;;6278154;28;20201;-65
2023/06/20 00:20:32;;;;;;;13.60;12.40;;;;;;;;;;6279977;28;20213;-66
2023/06/20 00:23:33;;;;;;;13.87;12.73;;;;;;;;;;6292776;28;20192;-66
2023/06/20 00:26:34;;;;;;;13.97;12.67;;;;;;;;;;6277027;28;20193;-66
2023/06/20 00:29:35;;;;;;;15.10;13.67;;;;;;;;;;6273615;28;20196;-66
2023/06/20 00:32:36;;;;;;;14.50;13.13;;;;;;;;;;6282015;28;20189;-66
2023/06/20 00:35:37;;;;;;;13.33;12.03;;;;;;;;;;6285882;28;20346;-66
2023/06/20 00:38:38;;;;;;;14.27;12.97;;;;;;;;;;6277350;28;20251;-65
2023/06/20 00:41:40;;;;;;;14.03;12.83;;;;;;;;;;6277809;28;20221;-65
2023/06/20 00:44:41;;;;;;;15.00;13.50;;;;;;;;;;6276874;28;20236;-65
2023/06/20 00:47:42;;;;;;;14.30;12.97;;;;;;;;;;6283158;28;20196;-65
2023/06/20 00:50:43;;;;;;;14.23;12.73;;;;;;;;;;6287714;28;20197;-66
2023/06/20 00:53:44;;;;;;;15.73;13.33;;;;;;;;;;6278731;28;20202;-66
2023/06/20 00:56:45;;;;;;;15.83;13.27;;;;;;;;;;6281556;28;20190;-66
2023/06/20 00:59:50;;;;;;;14.20;12.80;;;;;;;;;;6291677;28;20199;-66
2023/06/20 01:02:56;;;;;;;15.40;13.53;;;;;;;;;;6277539;28;20222;-66
2023/06/20 01:06:17;;;;;;;13.80;12.60;;;;;;;;;;6289317;28;20271;-65
2023/06/20 01:09:21;;;;;;;13.67;12.30;;;;;;;;;;6296172;28;20205;-65
2023/06/20 01:12:22;;;;;;;13.80;12.63;;;;;;;;;;6289602;28;20190;-65
2023/06/20 01:15:24;;;;;;;13.83;12.37;;;;;;;;;;6293477;28;20271;-65
2023/06/20 01:18:44;;;;;;;14.97;13.37;;;;;;;;;;6291407;28;20186;-65
2023/06/20 01:21:53;;;;;;;13.50;12.30;;;;;;;;;;6292304;28;20317;-65
2023/06/20 01:24:58;;;;;;;14.13;12.73;;;;;;;;;;6297884;28;20284;-65
2023/06/20 01:28:32;;;;;;;13.87;12.67;;;;;;;;;;6289504;28;20433;-66
2023/06/20 01:31:35;;;;;;;14.37;13.00;;;;;;;;;;6273469;28;20200;-65
2023/06/20 01:34:40;;;;;;;14.30;12.87;;;;;;;;;;6280467;28;20194;-66
2023/06/20 01:37:42;;;;;;;14.20;12.67;;;;;;;;;;6288125;28;20201;-66
2023/06/20 01:40:46;;;;;;;14.20;13.00;;;;;;;;;;6297672;28;20208;-66
2023/06/20 01:43:48;;;;;;;13.90;12.50;;;;;;;;;;6289486;28;20183;-66
2023/06/20 01:46:50;;;;;;;14.10;12.90;;;;;;;;;;6276865;28;20249;-66
2023/06/20 01:49:52;;;;;;;14.40;13.03;;;;;;;;;;6284859;28;20189;-66
2023/06/20 01:52:54;;;;;;;13.63;12.40;;;;;;;;;;6277482;28;20196;-65
2023/06/20 01:55:56;;;;;;;13.67;12.27;;;;;;;;;;6280589;28;20216;-65
2023/06/20 01:58:59;;;;;;;13.83;12.63;;;;;;;;;;6285078;28;20276;-65
2023/06/20 02:02:00;;;;;;;14.03;12.83;;;;;;;;;;6290779;28;20205;-65
2023/06/20 02:05:02;;;;;;;14.13;12.53;;;;;;;;;;6279645;28;20190;-65
2023/06/20 02:08:04;;;;;;;13.83;12.53;;;;;;;;;;6284820;28;20213;-65
2023/06/20 02:11:05;;;;;;;14.50;13.23;;;;;;;;;;6276935;28;20198;-65
2023/06/20 02:14:08;;;;;;;14.57;13.03;;;;;;;;;;6298823;28;20197;-65
2023/06/20 02:17:12;;;;;;;14.47;13.13;;;;;;;;;;6289681;28;20190;-66
2023/06/20 02:20:14;;;;;;;15.03;13.73;;;;;;;;;;6275630;28;20264;-66
2023/06/20 02:23:15;;;;;;;13.90;12.63;;;;;;;;;;6277526;28;20189;-66
2023/06/20 02:26:17;;;;;;;14.77;13.27;;;;;;;;;;6281016;28;20252;-66
2023/06/20 02:29:19;;;;;;;14.40;13.03;;;;;;;;;;6302752;28;20277;-66
2023/06/20 02:32:21;;;;;;;14.73;13.33;;;;;;;;;;6295407;28;20251;-66
2023/06/20 02:35:22;;;;;;;15.00;13.43;;;;;;;;;;6283555;28;20196;-66
2023/06/20 02:38:24;;;;;;;15.33;13.93;;;;;;;;;;6286635;28;20204;-66
2023/06/20 02:41:25;;;;;;;14.40;13.10;;;;;;;;;;6278107;28;20220;-66
2023/06/20 02:44:26;;;;;;;15.13;13.73;;;;;;;;;;6277649;28;20189;-65
2023/06/20 02:48:02;;;;;;;15.37;13.77;;;;;;;;;;6288394;28;20293;-66
2023/06/20 02:51:06;;;;;;;14.87;13.57;;;;;;;;;;6245137;28;20188;-66
2023/06/20 02:54:18;;;;;;;14.97;13.60;;;;;;;;;;6288346;28;20186;-66
2023/06/20 02:57:20;;;;;;;19.27;17.53;;;;;;;;;;6291584;28;20225;-65
2023/06/20 03:00:22;;;;;;;15.60;14.10;;;;;;;;;;6295460;28;20228;-65
2023/06/20 03:03:25;;;;;;;14.93;13.40;;;;;;;;;;6278606;28;20190;-65
2023/06/20 03:06:27;;;;;;;15.33;14.03;;;;;;;;;;6280903;28;20323;-66
2023/06/20 03:09:31;;;;;;;15.03;13.73;;;;;;;;;;6285000;28;20216;-67
2023/06/20 03:12:32;;;;;;;15.27;13.90;;;;;;;;;;6281667;28;20199;-67
2023/06/20 03:15:33;;;;;;;17.20;14.10;;;;;;;;;;6287584;28;20193;-67
2023/06/20 03:18:34;;;;;;;15.20;13.83;;;;;;;;;;6270302;28;20189;-65
2023/06/20 03:21:35;;;;;;;15.70;13.93;;;;;;;;;;6287672;28;20217;-63
2023/06/20 03:24:36;;;;;;;15.13;13.63;;;;;;;;;;6282796;28;20198;-65
2023/06/20 03:27:38;;;;;;;16.07;14.57;;;;;;;;;;6279564;28;20215;-65
2023/06/20 03:30:39;;;;;;;15.60;14.10;;;;;;;;;;6280970;28;20201;-65
2023/06/20 03:33:40;;;;;;;15.60;14.20;;;;;;;;;;6277520;28;20197;-66
2023/06/20 03:36:41;;;;;;;16.20;14.60;;;;;;;;;;6278630;28;20269;-66
2023/06/20 03:39:42;;;;;;;15.73;14.37;;;;;;;;;;6277793;28;20288;-66
2023/06/20 03:42:43;;;;;;;16.10;14.70;;;;;;;;;;6285208;28;20266;-65
2023/06/20 03:45:44;;;;;;;15.80;14.40;;;;;;;;;;6269202;28;20229;-65
2023/06/20 03:48:45;;;;;;;16.70;15.20;;;;;;;;;;6275909;28;20186;-65
2023/06/20 03:51:46;;;;;;;16.47;14.77;;;;;;;;;;6276117;28;20200;-66
2023/06/20 03:54:47;;;;;;;16.00;14.43;;;;;;;;;;6275970;28;20194;-64
2023/06/20 03:57:48;;;;;;;16.53;15.03;;;;;;;;;;6293023;28;20202;-66
2023/06/20 04:00:49;;;;;;;16.53;14.80;;;;;;;;;;6294373;28;20244;-64
2023/06/20 04:03:52;;;;;;;16.70;15.00;;;;;;;;;;6276673;28;20190;-63
2023/06/20 04:06:53;;;;;;;16.00;14.40;;;;;;;;;;6278703;28;20194;-65
2023/06/20 04:09:54;;;;;;;15.97;14.57;;;;;;;;;;6275696;28;20323;-65
2023/06/20 04:12:55;;;;;;;15.97;14.33;;;;;;;;;;6290775;28;20202;-63
2023/06/20 04:15:56;;;;;;;15.20;13.80;;;;;;;;;;6300892;28;20193;-65
2023/06/20 04:18:57;;;;;;;17.77;14.60;;;;;;;;;;6290236;28;20201;-65
2023/06/20 04:21:59;;;;;;;17.43;15.63;;;;;;;;;;6277965;28;20306;-65
2023/06/20 04:25:00;;;;;;;18.83;15.37;;;;;;;;;;6282633;28;20192;-65
2023/06/20 04:28:01;;;;;;;15.80;14.40;;;;;;;;;;6286016;28;20190;-66
2023/06/20 04:31:02;;;;;;;17.53;15.83;;;;;;;;;;6281907;28;20201;-65
2023/06/20 04:34:03;;;;;;;16.73;15.10;;;;;;;;;;6266354;28;20201;-64
2023/06/20 04:37:05;;;;;;;16.90;15.37;;;;;;;;;;6293132;28;20201;-64
2023/06/20 04:40:07;;;;;;;16.97;15.27;;;;;;;;;;6295005;28;20243;-66
2023/06/20 04:43:08;;;;;;;17.43;15.60;;;;;;;;;;6289325;28;20214;-65
2023/06/20 04:46:09;;;;;;;16.93;15.47;;;;;;;;;;6281905;28;20233;-65
2023/06/20 04:49:10;;;;;;;16.37;14.87;;;;;;;;;;6274874;28;20193;-65
2023/06/20 04:52:11;;;;;;;16.10;14.63;;;;;;;;;;6265548;28;20190;-66
2023/06/20 04:55:12;;;;;;;17.70;15.93;;;;;;;;;;6287348;28;20296;-63
2023/06/20 04:58:13;;;;;;;16.50;15.00;;;;;;;;;;6281224;28;20217;-63
2023/06/20 05:01:14;;;;;;;18.20;16.23;;;;;;;;;;6292649;28;20252;-65
2023/06/20 05:04:15;;;;;;;16.70;15.23;;;;;;;;;;6280200;28;20221;-66
2023/06/20 05:07:16;;;;;;;17.77;16.03;;;;;;;;;;6277458;28;20261;-65
2023/06/20 05:10:18;;;;;;;17.53;15.80;;;;;;;;;;6288249;28;20194;-66
2023/06/20 05:13:19;;;;;;;17.53;15.93;;;;;;;;;;6290041;28;20205;-66
2023/06/20 05:16:20;;;;;;;16.90;15.47;;;;;;;;;;6276621;28;20247;-66
2023/06/20 05:19:21;;;;;;;17.63;15.97;;;;;;;;;;6277165;28;20290;-66
2023/06/20 05:22:22;;;;;;;18.47;16.57;;;;;;;;;;6293360;28;20221;-65
2023/06/20 05:25:23;;;;;;;18.60;16.60;;;;;;;;;;6273303;28;20193;-65
2023/06/20 05:28:25;;;;;;;18.37;16.73;;;;;;;;;;6275904;28;20191;-65
2023/06/20 05:31:26;;;;;;;16.93;15.33;;;;;;;;;;6269565;28;20193;-66
2023/06/20 05:34:27;;;;;;;18.03;16.33;;;;;;;;;;6275856;28;20242;-65
2023/06/20 05:37:30;;;;;;;18.47;16.73;;;;;;;;;;6268632;28;20201;-66
2023/06/20 05:40:32;;;;;;;18.13;16.57;;;;;;;;;;6278125;28;20232;-65
2023/06/20 05:43:33;;;;;;;18.83;16.80;;;;;;;;;;6277626;28;20216;-65
2023/06/20 05:46:34;;;;;;;17.27;15.60;;;;;;;;;;6277051;28;20228;-65
2023/06/20 05:49:36;;;;;;;17.63;15.83;;;;;;;;;;6277124;28;20198;-65
2023/06/20 05:52:37;;;;;;;18.13;16.43;;;;;;;;;;6278310;28;20211;-65
2023/06/20 05:55:39;;;;;;;17.73;15.90;;;;;;;;;;6286296;28;20185;-66
2023/06/20 05:58:41;;;;;;;18.10;16.33;;;;;;;;;;6277433;28;20208;-65
2023/06/20 06:01:43;;;;;;;18.30;16.67;;;;;;;;;;6273894;28;20307;-65
2023/06/20 06:04:44;;;;;;;18.93;17.03;;;;;;;;;;6277659;28;20185;-65
2023/06/20 06:07:45;;;;;;;19.10;17.20;;;;;;;;;;6278604;28;20203;-65
2023/06/20 06:10:46;;;;;;;19.60;17.73;;;;;;;;;;6272499;28;20276;-65
2023/06/20 06:13:47;;;;;;;19.77;17.83;;;;;;;;;;6286334;28;20197;-65
2023/06/20 06:16:48;;;;;;;18.50;16.70;;;;;;;;;;6280218;28;20190;-66
2023/06/20 06:19:49;;;;;;;18.87;16.97;;;;;;;;;;6272298;28;20217;-65
2023/06/20 06:22:50;;;;;;;20.27;18.17;;;;;;;;;;6271786;28;20220;-65
2023/06/20 06:25:52;;;;;;;18.47;16.77;;;;;;;;;;6278637;28;20192;-65
2023/06/20 06:28:53;;;;;;;18.10;16.00;;;;;;;;;;6272575;28;20296;-65
2023/06/20 06:31:55;;;;;;;18.67;16.73;;;;;;;;;;6278939;28;20190;-65
2023/06/20 06:34:59;;;;;;;18.70;16.70;;;;;;;;;;6276123;28;20182;-65
2023/06/20 06:38:00;;;;;;;19.60;17.63;;;;;;;;;;6279979;28;20193;-65
2023/06/20 06:41:02;;;;;;;18.77;16.97;;;;;;;;;;6277728;28;20254;-65
2023/06/20 06:44:03;;;;;;;18.77;16.83;;;;;;;;;;6277262;28;20231;-65
2023/06/20 06:47:04;;;;;;;19.50;17.50;;;;;;;;;;6280874;28;20324;-65
2023/06/20 06:50:06;;;;;;;17.80;16.10;;;;;;;;;;6281862;28;20189;-65
2023/06/20 06:53:07;;;;;;;18.47;16.60;;;;;;;;;;6277536;28;20201;-65
2023/06/20 06:56:08;;;;;;;18.80;16.90;;;;;;;;;;6278647;28;20311;-65
2023/06/20 06:59:09;;;;;;;17.90;16.30;;;;;;;;;;6290510;28;20227;-65
2023/06/20 07:02:10;;;;;;;17.10;15.50;;;;;;;;;;6277554;28;20323;-65
2023/06/20 07:05:11;;;;;;;17.30;15.80;;;;;;;;;;6275327;28;20185;-65
2023/06/20 07:08:12;;;;;;;17.23;15.73;;;;;;;;;;6274225;28;20297;-65
2023/06/20 07:11:13;;;;;;;17.97;16.37;;;;;;;;;;6272156;28;20204;-65
2023/06/20 07:14:14;;;;;;;17.10;15.50;;;;;;;;;;6301301;28;20185;-65
2023/06/20 07:17:15;;;;;;;17.27;15.67;;;;;;;;;;6276149;28;20204;-66
2023/06/20 07:20:17;;;;;;;17.10;15.60;;;;;;;;;;6291927;28;20287;-65
2023/06/20 07:23:18;;;;;;;17.03;15.53;;;;;;;;;;6283390;28;20221;-65
2023/06/20 07:26:20;;;;;;;17.40;15.90;;;;;;;;;;6270987;28;20194;-65
2023/06/20 07:29:21;;;;;;;17.30;15.70;;;;;;;;;;6287887;28;20182;-65
2023/06/20 07:32:22;;;;;;;16.83;15.33;;;;;;;;;;6278865;28;20189;-65
2023/06/20 07:35:23;;;;;;;16.03;14.63;;;;;;;;;;6292117;28;20193;-66
2023/06/20 07:38:24;;;;;;;15.27;13.90;;;;;;;;;;6272329;28;20197;-65
2023/06/20 07:41:25;;;;;;;14.33;13.13;;;;;;;;;;6297975;28;20278;-65
2023/06/20 07:44:26;;;;;;;14.37;13.07;;;;;;;;;;6275383;28;20235;-65
2023/06/20 07:47:27;;;;;;;15.20;13.80;;;;;;;;;;6274282;28;20280;-65
2023/06/20 07:50:28;;;;;;;15.57;14.17;;;;;;;;;;6302470;28;20188;-65
2023/06/20 07:53:30;;;;;;;14.07;12.87;;;;;;;;;;6281587;28;20192;-65
2023/06/20 07:56:31;;;;;;;14.13;12.93;;;;;;;;;;6282113;28;20199;-65
2023/06/20 07:59:32;;;;;;;14.10;12.77;;;;;;;;;;6275884;28;20189;-65
2023/06/20 08:02:33;;;;;;;13.47;12.07;;;;;;;;;;6265914;28;20212;-65
2023/06/20 08:05:34;;;;;;;15.37;13.87;;;;;;;;;;6289399;28;20185;-65
2023/06/20 08:08:35;;;;;;;13.70;12.40;;;;;;;;;;6274470;28;20191;-65
2023/06/20 08:11:37;;;;;;;14.00;12.83;;;;;;;;;;6286199;28;20206;-65
2023/06/20 08:14:38;;;;;;;13.03;11.93;;;;;;;;;;6281955;28;20189;-65
2023/06/20 08:17:39;;;;;;;14.40;13.17;;;;;;;;;;6280988;28;20186;-65
2023/06/20 08:20:41;;;;;;;14.00;12.80;;;;;;;;;;6279648;28;20200;-65
2023/06/20 08:23:44;;;;;;;14.20;12.87;;;;;;;;;;6276971;28;20193;-65
2023/06/20 08:26:45;;;;;;;14.17;12.73;;;;;;;;;;6276211;28;20189;-65
2023/06/20 08:29:46;;;;;;;14.70;13.33;;;;;;;;;;6275066;28;20285;-65
2023/06/20 08:32:47;;;;;;;13.93;12.73;;;;;;;;;;6282989;28;20197;-65
2023/06/20 08:35:50;;;;;;;14.17;12.67;;;;;;;;;;6281551;28;20274;-65
2023/06/20 08:38:51;;;;;;;13.27;12.10;;;;;;;;;;6272715;28;20213;-65
2023/06/20 08:41:52;;;;;;;14.40;13.10;;;;;;;;;;6273404;28;20240;-65
2023/06/20 08:44:56;;;;;;;13.07;11.87;;;;;;;;;;6292587;28;20247;-66
2023/06/20 08:47:58;;;;;;;14.53;13.23;;;;;;;;;;6278351;28;20253;-65
2023/06/20 08:50:59;;;;;;;13.60;12.37;;;;;;;;;;6287919;28;20197;-65
2023/06/20 08:54:04;;;;;;;13.33;12.23;;;;;;;;;;6277141;28;20195;-65
2023/06/20 08:57:06;;;;;;;13.33;12.10;;;;;;;;;;6302640;28;20201;-65
2023/06/20 09:00:11;;;;;;;13.50;12.30;;;;;;;;;;6269768;28;20198;-65
2023/06/20 09:03:12;;;;;;;14.27;12.97;;;;;;;;;;6288554;28;20228;-65
2023/06/20 09:06:13;;;;;;;14.83;13.60;;;;;;;;;;6274320;28;20201;-65
2023/06/20 09:09:16;;;;;;;14.07;12.93;;;;;;;;;;6288538;28;20197;-65
2023/06/20 09:12:17;;;;;;;14.40;13.13;;;;;;;;;;6274330;28;20186;-65
2023/06/20 09:15:20;;;;;;;13.53;12.33;;;;;;;;;;6273958;28;20181;-65
2023/06/20 09:18:21;;;;;;;14.40;13.07;;;;;;;;;;6282422;28;20214;-65
2023/06/20 09:21:22;;;;;;;14.33;13.13;;;;;;;;;;6293599;28;20208;-65
2023/06/20 09:24:23;;;;;;;14.03;12.83;;;;;;;;;;6282983;28;20189;-65
2023/06/20 09:27:24;;;;;;;15.17;13.83;;;;;;;;;;6273645;28;20217;-65
2023/06/20 09:30:30;;;;;;;14.40;13.10;;;;;;;;;;6280794;28;20212;-65
2023/06/20 09:33:31;;;;;;;13.80;12.60;;;;;;;;;;6278968;28;20182;-65
2023/06/20 09:36:32;;;;;;;14.30;13.07;;;;;;;;;;6281014;28;20181;-65
2023/06/20 09:39:33;;;;;;;14.27;12.97;;;;;;;;;;6271691;28;20280;-65
2023/06/20 09:42:34;;;;;;;14.67;13.37;;;;;;;;;;6281288;28;20228;-65
2023/06/20 09:45:35;;;;;;;13.97;12.77;;;;;;;;;;6281095;28;20228;-65
2023/06/20 09:48:37;;;;;;;15.07;13.57;;;;;;;;;;6277250;28;20202;-65
2023/06/20 09:51:42;;;;;;;15.47;14.07;;;;;;;;;;6283342;28;20186;-65
2023/06/20 09:54:46;;;;;;;13.90;12.73;;;;;;;;;;6279935;28;20186;-65
2023/06/20 09:57:51;;;;;;;15.97;14.53;;;;;;;;;;6296569;28;20276;-65
2023/06/20 10:00:54;;;;;;;14.70;13.50;;;;;;;;;;6287285;28;20217;-65
2023/06/20 10:03:55;;;;;;;14.63;13.43;;;;;;;;;;6272365;28;20261;-65
2023/06/20 10:06:56;;;;;;;14.23;12.83;;;;;;;;;;6280027;28;20273;-65
2023/06/20 10:09:58;;;;;;;14.20;12.87;;;;;;;;;;6284417;28;20186;-65
2023/06/20 10:13:00;;;;;;;14.37;13.07;;;;;;;;;;6293039;28;20197;-65
2023/06/20 10:16:01;;;;;;;13.87;12.67;;;;;;;;;;6260658;28;20206;-65
2023/06/20 10:19:18;;;;;;;14.33;13.13;;;;;;;;;;6278480;28;20217;-65
2023/06/20 10:22:36;;;;;;;14.37;13.07;;;;;;;;;;6273278;28;20210;-65
2023/06/20 10:25:53;;;;;;;14.50;13.27;;;;;;;;;;6294169;28;20272;-66
2023/06/20 10:28:56;;;;;;;14.37;13.17;;;;;;;;;;6276932;28;20202;-65
2023/06/20 10:32:03;;;;;;;13.63;12.53;;;;;;;;;;6300991;28;20198;-65
2023/06/20 10:35:07;;;;;;;13.63;12.53;;;;;;;;;;6274134;28;20198;-65
2023/06/20 10:38:09;;;;;;;14.20;13.07;;;;;;;;;;6279462;28;20194;-65
2023/06/20 10:41:14;;;;;;;13.77;12.67;;;;;;;;;;6296548;28;20214;-65
2023/06/20 10:44:27;;;;;;;13.90;12.70;;;;;;;;;;6281858;28;20212;-65
2023/06/20 10:47:28;;;;;;;14.00;12.80;;;;;;;;;;6282383;28;20206;-65
2023/06/20 10:50:30;;;;;;;13.57;12.47;;;;;;;;;;6285187;28;20182;-65
2023/06/20 10:53:31;;;;;;;13.80;12.50;;;;;;;;;;6285682;28;20212;-65
2023/06/20 10:56:35;;;;;;;13.40;12.37;;;;;;;;;;6279365;28;20220;-66
2023/06/20 10:59:36;;;;;;;13.77;12.67;;;;;;;;;;6293564;28;20248;-65
2023/06/20 11:02:37;;;;;;;13.53;12.43;;;;;;;;;;6293899;28;20299;-65
2023/06/20 11:05:39;;;;;;;12.93;11.93;;;;;;;;;;6272897;28;20189;-66
2023/06/20 11:08:42;;;;;;;13.40;12.30;;;;;;;;;;6295108;28;20193;-66
2023/06/20 11:11:44;;;;;;;13.23;11.97;;;;;;;;;;6285877;28;20197;-65
2023/06/20 11:14:45;;;;;;;13.83;12.57;;;;;;;;;;6280986;28;20197;-65
2023/06/20 11:17:46;;;;;;;13.60;12.50;;;;;;;;;;6285246;28;20229;-65
2023/06/20 11:20:47;;;;;;;12.97;11.97;;;;;;;;;;6278227;28;20253;-65
2023/06/20 11:23:48;;;;;;;14.30;13.03;;;;;;;;;;6276558;28;20192;-65
2023/06/20 11:26:49;;;;;;;13.33;12.33;;;;;;;;;;6277602;28;20190;-65
2023/06/20 11:29:50;;;;;;;14.30;13.20;;;;;;;;;;6278326;28;20193;-65
2023/06/20 11:33:17;;;;;;;14.03;12.83;;;;;;;;;;6288252;28;20198;-65
2023/06/20 11:36:18;;;;;;;13.70;12.70;;;;;;;;;;6276448;28;20611;-65
2023/06/20 11:39:20;;;;;;;13.83;12.67;;;;;;;;;;6281009;28;20200;-65
2023/06/20 11:42:22;;;;;;;16.00;13.77;;;;;;;;;;6279933;28;20224;-65
2023/06/20 11:45:26;;;;;;;14.50;13.30;;;;;;;;;;6310379;28;20257;-65
2023/06/20 11:48:28;;;;;;;13.20;11.77;;;;;;;;;;6264326;28;20235;-65
2023/06/20 11:51:30;;;;;;;13.40;12.30;;;;;;;;;;6283864;28;20206;-64
2023/06/20 11:54:45;;;;;;;12.23;11.23;;;;;;;;;;6285538;28;20190;-63
2023/06/20 11:57:46;;;;;;;13.27;12.17;;;;;;;;;;6283691;28;20229;-63
2023/06/20 12:00:58;;;;;;;13.03;11.87;;;;;;;;;;6282775;28;20205;-62
2023/06/20 12:04:13;;;;;;;12.10;11.20;;;;;;;;;;6286696;28;20185;-62
2023/06/20 12:07:18;;;;;;;20.33;12.80;;;;;;;;;;6281559;28;20197;-62
2023/06/20 12:10:20;;;;;;;12.30;11.23;;;;;;;;;;6278322;28;20192;-62
2023/06/20 12:13:21;;;;;;;13.03;11.93;;;;;;;;;;6289142;28;20186;-62
2023/06/20 12:16:23;;;;;;;11.47;10.57;;;;;;;;;;6276292;28;20206;-63
2023/06/20 12:19:24;;;;;;;11.93;10.93;;;;;;;;;;6268347;28;20194;-63
2023/06/20 12:22:28;;;;;;;11.33;10.43;;;;;;;;;;6280833;28;20251;-62
2023/06/20 12:25:29;;;;;;;12.50;11.50;;;;;;;;;;6284157;28;20287;-62
2023/06/20 12:28:32;;;;;;;12.27;11.20;;;;;;;;;;6282961;28;20196;-63
2023/06/20 12:31:33;;;;;;;11.60;10.73;;;;;;;;;;6277916;28;20197;-62
2023/06/20 12:34:34;;;;;;;11.53;10.67;;;;;;;;;;6279633;28;20201;-63
2023/06/20 12:37:35;;;;;;;11.67;10.70;;;;;;;;;;6283281;28;20193;-64
2023/06/20 12:40:37;;;;;;;11.20;10.30;;;;;;;;;;6276817;28;20192;-63
2023/06/20 12:43:38;;;;;;;12.50;11.40;;;;;;;;;;6285477;28;20229;-63
2023/06/20 12:46:41;;;;;;;11.93;10.80;;;;;;;;;;6298176;28;20225;-63
2023/06/20 12:49:42;;;;;;;11.30;10.47;;;;;;;;;;6280278;28;20196;-63
2023/06/20 12:52:43;;;;;;;11.87;10.87;;;;;;;;;;6283001;28;20258;-64
2023/06/20 12:55:44;;;;;;;11.43;10.50;;;;;;;;;;6272087;28;20193;-64
2023/06/20 12:58:45;;;;;;;13.37;12.27;;;;;;;;;;6295352;28;20250;-64
2023/06/20 13:01:46;;;;;;;13.13;11.93;;;;;;;;;;6283019;28;20287;-64
2023/06/20 13:04:49;;;;;;;13.90;12.70;;;;;;;;;;6281071;28;20189;-63
2023/06/20 13:07:50;;;;;;;12.40;11.50;;;;;;;;;;6274219;28;20227;-63
2023/06/20 13:10:52;;;;;;;12.63;11.63;;;;;;;;;;6278047;28;20235;-65
2023/06/20 13:13:53;;;;;;;12.73;11.83;;;;;;;;;;6284417;28;20198;-64
2023/06/20 13:16:58;;;;;;;12.33;11.23;;;;;;;;;;6276910;28;20189;-62
2023/06/20 13:19:59;;;;;;;12.83;11.93;;;;;;;;;;6286881;28;20193;-63
2023/06/20 13:23:01;;;;;;;11.83;10.97;;;;;;;;;;6269946;28;20229;-63
2023/06/20 13:26:04;;;;;;;12.77;11.87;;;;;;;;;;6266082;28;20317;-63
2023/06/20 13:29:05;;;;;;;12.20;11.30;;;21.40;74.40;;;;;;6273518;28;20190;-62
2023/06/20 13:32:06;;;;;;;12.33;11.43;;;;;;;;;;6290269;28;20216;-62
2023/06/20 13:35:08;;;;;;;11.73;10.80;;;;;;;;;;6297062;28;20263;-62
2023/06/20 13:38:08;;;;;;;12.03;11.13;;;35.90;44.30;;;;;;6286866;28;20208;-62
2023/06/20 13:41:10;;;;;;;12.10;11.07;;;;;;;;;;6279751;28;20280;-63
2023/06/20 13:44:13;;;;;;;11.83;10.93;;;;;;;;;;6272255;28;20268;-63
2023/06/20 13:47:14;;;;;;;12.90;11.90;;;35.50;44.70;;;;;;6290062;28;20290;-63
2023/06/20 13:50:16;;;;;;;12.20;11.20;;;;;;;;;;6280855;28;20189;-63
2023/06/20 13:53:18;;;;;;;12.70;11.60;;;;;;;;;;6272821;28;20196;-63
2023/06/20 13:56:19;;;;;;;12.57;11.57;;;;;;;;;;6278698;28;20246;-62
2023/06/20 13:59:20;;;;;;;12.40;11.50;;;;;;;;;;6267816;28;20272;-63
2023/06/20 14:02:21;;;;;;;11.63;10.77;;;;;;;;;;6282820;28;20205;-63
2023/06/20 14:05:22;;;;;;;12.03;11.03;;;;;;;;;;6277989;28;20185;-63
2023/06/20 14:08:24;;;;;;;12.40;11.40;;;;;;;;;;6286560;28;20185;-63
2023/06/20 14:11:25;;;;;;;12.07;11.17;;;;;;;;;;6301063;28;20189;-63
2023/06/20 14:14:28;;;;;;;12.60;11.70;;;;;;;;;;6286403;28;20271;-62
2023/06/20 14:17:29;;;;;;;12.00;11.00;;;;;;;;;;6299994;28;20194;-62
2023/06/20 14:20:30;;;;;;;12.73;11.83;;;;;;;;;;6274608;28;20198;-61
2023/06/20 14:23:31;;;;;;;12.80;11.80;;;;;;;;;;6283030;28;20221;-61
2023/06/20 14:26:33;;;;;;;12.30;11.30;;;;;;;;;;6278531;28;20185;-62
2023/06/20 14:29:34;;;;;;;12.20;11.20;;;;;;;;;;6290070;28;20185;-62
2023/06/20 14:32:35;;;;;;;11.63;10.83;;;;;;;;;;6293872;28;20189;-61
2023/06/20 14:35:36;;;;;;;12.40;11.30;;;;;;;;;;6276690;28;20193;-62
2023/06/20 14:38:41;;;;;;;13.03;11.93;;;;;;;;;;6273506;28;20192;-62
2023/06/20 14:41:42;;;;;;;12.27;11.27;;;;;;;;;;6293773;28;20220;-62
2023/06/20 14:44:43;;;;;;;12.53;11.53;;;;;;;;;;6274690;28;20245;-61
2023/06/20 14:47:44;;;;;;;12.73;11.63;;;;;;;;;;6288767;28;20193;-62
2023/06/20 14:50:45;;;;;;;12.53;11.53;;;;;;;;;;6267741;28;20220;-62
2023/06/20 14:53:46;;;;;;;12.83;11.80;;;;;;;;;;6278053;28;20205;-62
2023/06/20 14:56:47;;;;;;;13.17;12.07;;;;;;;;;;6293461;28;20216;-62
2023/06/20 14:59:48;;;;;;;9.60;8.67;;;;;;;;;;6297012;28;20189;-60
2023/06/20 15:02:49;;;;;;;10.70;9.40;;;;;;;;;;6289990;28;20266;-60
2023/06/20 15:05:50;;;;;;;10.73;9.93;;;;;;;;;;6296463;28;20490;-60
2023/06/20 15:08:51;;;;;;;11.77;10.77;;;;;;;;;;6285672;28;20239;-61
2023/06/20 15:11:52;;;;;;;12.60;11.70;;;;;;;;;;6302283;28;20189;-60
2023/06/20 15:14:53;;;;;;;12.10;11.10;;;;;;;;;;6279837;28;20216;-60
2023/06/20 15:17:56;;;;;;;12.47;11.27;;;;;;;;;;6270486;28;20190;-60
2023/06/20 15:20:57;;;;;;;11.70;10.80;;;;;;;;;;6298462;28;20197;-60
2023/06/20 15:23:58;;;;;;;11.97;10.83;;;;;;;;;;6287851;28;20197;-60
2023/06/20 15:26:59;;;;;;;11.60;10.70;;;;;;;;;;6288871;28;20220;-59
2023/06/20 15:30:00;;;;;;;11.00;10.20;;;;;;;;;;6280554;28;20188;-60
2023/06/20 15:33:03;;;;;;;10.63;9.77;;;;;;;;;;6274553;28;20198;-60
2023/06/20 15:36:04;;;;;;;11.10;10.10;;;;;;;;;;6276099;28;20194;-59
2023/06/20 15:39:06;;;;;;;10.37;9.57;;;;;;;;;;6286082;28;20189;-61
2023/06/20 15:42:07;;;;;;;12.47;11.27;;;;;;;;;;6280651;28;20221;-61
2023/06/20 15:45:08;;;;;;;11.23;10.33;;;;;;;;;;6277354;28;20236;-60
2023/06/20 15:48:10;;;;;;;12.50;11.40;;;;;;;;;;6278686;28;20181;-60
2023/06/20 15:51:11;;;;;;;12.80;11.70;;;;;;;;;;6289482;28;20277;-59
2023/06/20 15:54:12;;;;;;;12.20;11.23;;;;;;;;;;6291908;28;20190;-59
2023/06/20 15:57:14;;;;;;;12.43;11.37;;;;;;;;;;6305816;28;20193;-59
2023/06/20 16:00:15;;;;;;;13.77;12.57;;;;;;;;;;6281174;28;20189;-59
2023/06/20 16:03:16;;;;;;;12.70;11.70;;;;;;;;;;6297304;28;20217;-59
2023/06/20 16:06:17;;;;;;;11.90;11.00;;;;;;;;;;6277225;28;20193;-59
2023/06/20 16:09:18;;;;;;;12.80;11.70;;;;;;;;;;6301345;28;20184;-59
2023/06/20 16:12:19;;;;;;;12.67;11.67;;;;;;;;;;6276325;28;20236;-59
2023/06/20 16:15:20;;;;;;;13.13;12.13;;;;;;;;;;6285135;28;20248;-60
2023/06/20 16:18:21;;;;;;;13.97;12.87;;;;;;;;;;6285162;28;20200;-60
2023/06/20 16:21:22;;;;;;;12.30;11.23;;;;;;;;;;6295199;28;20294;-60
2023/06/20 16:24:23;;;;;;;13.27;12.20;;;;;;;;;;6288760;28;20189;-60
2023/06/20 16:27:24;;;;;;;12.57;11.40;;;;;;;;;;6289448;28;20211;-60
2023/06/20 16:30:26;;;;;;;12.73;11.60;;;;;;;;;;6291295;28;20223;-60
2023/06/20 16:33:27;;;;;;;13.17;12.10;;;;;;;;;;6297111;28;20204;-59
2023/06/20 16:36:28;;;;;;;12.90;11.90;;;;;;;;;;6279704;28;20196;-59
2023/06/20 16:39:29;;;;;;;12.57;11.47;;;;;;;;;;6297882;28;20284;-59
2023/06/20 16:42:31;;;;;;;12.57;11.57;;;;;;;;;;6277928;28;20309;-58
2023/06/20 16:45:32;;;;;;;13.67;12.17;;;;;;;;;;6281393;28;20811;-59
2023/06/20 16:48:33;;;;;;;13.17;12.07;;;;;;;;;;6279366;28;20192;-59
2023/06/20 16:51:34;;;;;;;12.73;11.63;;;;;;;;;;6281815;28;20209;-59
2023/06/20 16:54:35;;;;;;;13.47;12.37;;;;;;;;;;6282193;28;20197;-59
2023/06/20 16:57:36;;;;;;;13.20;12.17;;;;;;;;;;6293696;28;20193;-61
2023/06/20 17:00:37;;;;;;;13.03;12.03;;;;;;;;;;6287112;28;20189;-60
2023/06/20 17:03:38;;;;;;;13.73;12.43;;;;;;;;;;6282347;28;20213;-61
2023/06/20 17:06:40;;;;;;;13.10;11.90;;;;;;;;;;6274774;28;20231;-61
2023/06/20 17:09:41;;;;;;;12.93;11.97;;;;;;;;;;6285539;28;20228;-62
2023/06/20 17:12:43;;;;;;;13.30;12.30;;;;;;;;;;6277207;28;20235;-62
2023/06/20 17:15:44;;;;;;;13.70;12.60;;;;;;;;;;6294289;28;20228;-62
2023/06/20 17:18:45;;;;;;;12.90;11.90;;;;;;;;;;6287892;28;20252;-62
2023/06/20 17:21:46;;;;;;;13.23;12.03;;;;;;;;;;6291324;28;20284;-62
2023/06/20 17:24:47;;;;;;;12.80;11.80;;;;;;;;;;6309385;28;20258;-62
2023/06/20 17:27:48;;;;;;;12.73;11.63;;;;;;;;;;6279222;28;20239;-61
2023/06/20 17:30:49;;;;;;;12.83;11.43;;;;;;;;;;6279647;28;20224;-61
2023/06/20 17:33:50;;;;;;;12.73;11.53;;;;;;;;;;6287324;28;20223;-61
2023/06/20 17:36:51;;;;;;;11.80;10.90;;;;;;;;;;6274916;28;20221;-62
2023/06/20 17:39:52;;;;;;;12.73;11.63;;;;;;;;;;6284797;28;20193;-62